sensor_id;sensor_type;location;lat;lon;timestamp;P1;durP1;ratioP1;P2;durP2;ratioP2
85701;SDS011;76139;50.888;3.882;2024-03-29T00:01:19;3.83;;;1.05;;
85701;SDS011;76139;50.888;3.882;2024-03-29T00:03:45;3.25;;;1.02;;
85701;SDS011;76139;50.888;3.882;2024-03-29T00:06:11;6.47;;;1.55;;
85701;SDS011;76139;50.888;3.882;2024-03-29T00:08:37;2.30;;;0.80;;
85701;SDS011;76139;50.888;3.882;2024-03-29T00:11:02;3.40;;;1.20;;
85701;SDS011;76139;50.888;3.882;2024-03-29T00:13:28;5.53;;;1.17;;
85701;SDS011;76139;50.888;3.882;2024-03-29T00:15:54;5.50;;;1.15;;
85701;SDS011;76139;50.888;3.882;2024-03-29T00:18:20;6.10;;;1.08;;
85701;SDS011;76139;50.888;3.882;2024-03-29T00:20:46;5.15;;;1.08;;
85701;SDS011;76139;50.888;3.882;2024-03-29T00:23:12;5.15;;;0.88;;
85701;SDS011;76139;50.888;3.882;2024-03-29T00:25:38;3.35;;;1.00;;
85701;SDS011;76139;50.888;3.882;2024-03-29T00:28:04;5.03;;;1.25;;
85701;SDS011;76139;50.888;3.882;2024-03-29T00:30:30;4.60;;;1.55;;
85701;SDS011;76139;50.888;3.882;2024-03-29T00:32:55;3.50;;;0.85;;
85701;SDS011;76139;50.888;3.882;2024-03-29T00:35:21;3.78;;;0.98;;
85701;SDS011;76139;50.888;3.882;2024-03-29T00:37:48;4.03;;;0.98;;
85701;SDS011;76139;50.888;3.882;2024-03-29T00:40:14;5.32;;;1.50;;
85701;SDS011;76139;50.888;3.882;2024-03-29T00:42:40;2.75;;;1.35;;
85701;SDS011;76139;50.888;3.882;2024-03-29T00:45:06;6.00;;;1.45;;
85701;SDS011;76139;50.888;3.882;2024-03-29T00:47:32;3.58;;;1.13;;
85701;SDS011;76139;50.888;3.882;2024-03-29T00:49:58;3.88;;;0.80;;
85701;SDS011;76139;50.888;3.882;2024-03-29T00:52:24;2.78;;;1.05;;
85701;SDS011;76139;50.888;3.882;2024-03-29T00:54:50;1.95;;;0.63;;
85701;SDS011;76139;50.888;3.882;2024-03-29T00:57:16;4.28;;;1.10;;
85701;SDS011;76139;50.888;3.882;2024-03-29T00:59:42;2.38;;;0.90;;
85701;SDS011;76139;50.888;3.882;2024-03-29T01:02:08;6.03;;;1.20;;
85701;SDS011;76139;50.888;3.882;2024-03-29T01:04:34;3.20;;;0.82;;
85701;SDS011;76139;50.888;3.882;2024-03-29T01:07:00;3.78;;;1.10;;
85701;SDS011;76139;50.888;3.882;2024-03-29T01:09:26;0.80;;;0.60;;
85701;SDS011;76139;50.888;3.882;2024-03-29T01:11:52;2.78;;;1.15;;
85701;SDS011;76139;50.888;3.882;2024-03-29T01:14:18;1.27;;;0.98;;
85701;SDS011;76139;50.888;3.882;2024-03-29T01:16:44;1.77;;;0.80;;
85701;SDS011;76139;50.888;3.882;2024-03-29T01:19:10;5.68;;;1.10;;
85701;SDS011;76139;50.888;3.882;2024-03-29T01:21:36;3.05;;;0.60;;
85701;SDS011;76139;50.888;3.882;2024-03-29T01:24:02;4.32;;;1.40;;
85701;SDS011;76139;50.888;3.882;2024-03-29T01:26:29;3.58;;;0.90;;
85701;SDS011;76139;50.888;3.882;2024-03-29T01:28:55;9.57;;;0.90;;
85701;SDS011;76139;50.888;3.882;2024-03-29T01:31:22;4.68;;;1.30;;
85701;SDS011;76139;50.888;3.882;2024-03-29T01:33:51;1.92;;;1.05;;
85701;SDS011;76139;50.888;3.882;2024-03-29T01:36:16;3.80;;;1.20;;
85701;SDS011;76139;50.888;3.882;2024-03-29T01:38:42;4.10;;;0.77;;
85701;SDS011;76139;50.888;3.882;2024-03-29T01:41:11;3.72;;;1.00;;
85701;SDS011;76139;50.888;3.882;2024-03-29T01:43:37;3.88;;;0.77;;
85701;SDS011;76139;50.888;3.882;2024-03-29T01:46:03;2.95;;;0.85;;
85701;SDS011;76139;50.888;3.882;2024-03-29T01:48:33;5.07;;;1.27;;
85701;SDS011;76139;50.888;3.882;2024-03-29T01:50:59;4.13;;;0.85;;
85701;SDS011;76139;50.888;3.882;2024-03-29T01:53:26;2.58;;;0.65;;
85701;SDS011;76139;50.888;3.882;2024-03-29T01:55:53;4.10;;;0.60;;
85701;SDS011;76139;50.888;3.882;2024-03-29T01:58:19;1.55;;;0.60;;
85701;SDS011;76139;50.888;3.882;2024-03-29T02:00:54;3.30;;;0.70;;
85701;SDS011;76139;50.888;3.882;2024-03-29T02:03:22;3.78;;;1.00;;
85701;SDS011;76139;50.888;3.882;2024-03-29T02:05:48;1.30;;;0.45;;
85701;SDS011;76139;50.888;3.882;2024-03-29T02:08:14;1.15;;;0.40;;
85701;SDS011;76139;50.888;3.882;2024-03-29T02:10:41;1.27;;;0.38;;
85701;SDS011;76139;50.888;3.882;2024-03-29T02:13:08;2.78;;;0.52;;
85701;SDS011;76139;50.888;3.882;2024-03-29T02:15:34;2.22;;;0.52;;
85701;SDS011;76139;50.888;3.882;2024-03-29T02:18:00;1.38;;;0.30;;
85701;SDS011;76139;50.888;3.882;2024-03-29T02:20:25;0.30;;;0.20;;
85701;SDS011;76139;50.888;3.882;2024-03-29T02:22:55;0.52;;;0.35;;
85701;SDS011;76139;50.888;3.882;2024-03-29T02:25:41;1.15;;;0.40;;
85701;SDS011;76139;50.888;3.882;2024-03-29T02:28:06;3.17;;;0.55;;
85701;SDS011;76139;50.888;3.882;2024-03-29T02:30:32;0.68;;;0.50;;
85701;SDS011;76139;50.888;3.882;2024-03-29T02:32:58;3.15;;;0.40;;
85701;SDS011;76139;50.888;3.882;2024-03-29T02:35:25;1.95;;;0.60;;
85701;SDS011;76139;50.888;3.882;2024-03-29T02:37:51;1.85;;;0.80;;
85701;SDS011;76139;50.888;3.882;2024-03-29T02:40:17;0.50;;;0.40;;
85701;SDS011;76139;50.888;3.882;2024-03-29T02:42:44;1.48;;;0.45;;
85701;SDS011;76139;50.888;3.882;2024-03-29T02:45:10;1.25;;;0.50;;
85701;SDS011;76139;50.888;3.882;2024-03-29T02:47:35;1.02;;;0.32;;
85701;SDS011;76139;50.888;3.882;2024-03-29T02:50:01;1.70;;;0.55;;
85701;SDS011;76139;50.888;3.882;2024-03-29T02:52:27;1.55;;;0.60;;
85701;SDS011;76139;50.888;3.882;2024-03-29T02:54:54;1.20;;;0.60;;
85701;SDS011;76139;50.888;3.882;2024-03-29T02:57:19;1.17;;;0.35;;
85701;SDS011;76139;50.888;3.882;2024-03-29T02:59:45;2.70;;;0.70;;
85701;SDS011;76139;50.888;3.882;2024-03-29T03:02:11;2.35;;;0.82;;
85701;SDS011;76139;50.888;3.882;2024-03-29T03:04:37;2.17;;;0.60;;
85701;SDS011;76139;50.888;3.882;2024-03-29T03:07:02;2.50;;;1.02;;
85701;SDS011;76139;50.888;3.882;2024-03-29T03:09:51;2.92;;;0.75;;
85701;SDS011;76139;50.888;3.882;2024-03-29T03:12:35;2.00;;;0.50;;
85701;SDS011;76139;50.888;3.882;2024-03-29T03:15:01;2.47;;;0.75;;
85701;SDS011;76139;50.888;3.882;2024-03-29T03:17:27;3.25;;;0.60;;
85701;SDS011;76139;50.888;3.882;2024-03-29T03:19:53;2.55;;;0.60;;
85701;SDS011;76139;50.888;3.882;2024-03-29T03:22:19;2.63;;;1.08;;
85701;SDS011;76139;50.888;3.882;2024-03-29T03:24:45;2.33;;;0.98;;
85701;SDS011;76139;50.888;3.882;2024-03-29T03:27:11;4.38;;;1.25;;
85701;SDS011;76139;50.888;3.882;2024-03-29T03:29:36;2.00;;;1.13;;
85701;SDS011;76139;50.888;3.882;2024-03-29T03:32:02;4.07;;;1.70;;
85701;SDS011;76139;50.888;3.882;2024-03-29T03:34:28;1.38;;;0.75;;
85701;SDS011;76139;50.888;3.882;2024-03-29T03:36:57;3.92;;;1.33;;
85701;SDS011;76139;50.888;3.882;2024-03-29T03:39:22;6.35;;;1.27;;
85701;SDS011;76139;50.888;3.882;2024-03-29T03:41:48;1.50;;;0.80;;
85701;SDS011;76139;50.888;3.882;2024-03-29T03:44:15;2.58;;;0.70;;
85701;SDS011;76139;50.888;3.882;2024-03-29T03:46:41;6.95;;;1.00;;
85701;SDS011;76139;50.888;3.882;2024-03-29T03:49:07;2.83;;;1.30;;
85701;SDS011;76139;50.888;3.882;2024-03-29T03:51:33;2.30;;;1.00;;
85701;SDS011;76139;50.888;3.882;2024-03-29T03:53:59;3.45;;;1.02;;
85701;SDS011;76139;50.888;3.882;2024-03-29T03:56:24;5.88;;;1.15;;
85701;SDS011;76139;50.888;3.882;2024-03-29T03:58:50;2.05;;;0.68;;
85701;SDS011;76139;50.888;3.882;2024-03-29T04:01:16;1.10;;;0.82;;
85701;SDS011;76139;50.888;3.882;2024-03-29T04:03:41;3.80;;;1.13;;
85701;SDS011;76139;50.888;3.882;2024-03-29T04:06:07;2.10;;;1.20;;
85701;SDS011;76139;50.888;3.882;2024-03-29T04:08:33;3.38;;;1.58;;
85701;SDS011;76139;50.888;3.882;2024-03-29T04:11:02;3.38;;;0.98;;
85701;SDS011;76139;50.888;3.882;2024-03-29T04:13:28;2.20;;;0.93;;
85701;SDS011;76139;50.888;3.882;2024-03-29T04:16:00;2.45;;;0.98;;
85701;SDS011;76139;50.888;3.882;2024-03-29T04:18:30;1.85;;;0.98;;
85701;SDS011;76139;50.888;3.882;2024-03-29T04:20:56;2.75;;;0.80;;
85701;SDS011;76139;50.888;3.882;2024-03-29T04:23:23;2.75;;;0.90;;
85701;SDS011;76139;50.888;3.882;2024-03-29T04:25:52;2.33;;;1.10;;
85701;SDS011;76139;50.888;3.882;2024-03-29T04:28:19;3.33;;;1.05;;
85701;SDS011;76139;50.888;3.882;2024-03-29T04:30:54;2.42;;;1.35;;
85701;SDS011;76139;50.888;3.882;2024-03-29T04:33:21;2.30;;;0.88;;
85701;SDS011;76139;50.888;3.882;2024-03-29T04:36:05;3.13;;;1.00;;
85701;SDS011;76139;50.888;3.882;2024-03-29T04:40:57;3.45;;;0.98;;
85701;SDS011;76139;50.888;3.882;2024-03-29T04:43:24;2.70;;;1.10;;
85701;SDS011;76139;50.888;3.882;2024-03-29T04:46:00;2.35;;;0.98;;
85701;SDS011;76139;50.888;3.882;2024-03-29T04:48:29;2.08;;;0.90;;
85701;SDS011;76139;50.888;3.882;2024-03-29T04:50:55;4.38;;;0.95;;
85701;SDS011;76139;50.888;3.882;2024-03-29T04:53:21;2.22;;;0.80;;
85701;SDS011;76139;50.888;3.882;2024-03-29T04:55:52;2.25;;;1.30;;
85701;SDS011;76139;50.888;3.882;2024-03-29T05:00:56;2.05;;;0.90;;
85701;SDS011;76139;50.888;3.882;2024-03-29T05:03:22;4.57;;;1.13;;
85701;SDS011;76139;50.888;3.882;2024-03-29T05:05:49;2.60;;;0.90;;
85701;SDS011;76139;50.888;3.882;2024-03-29T05:08:15;2.00;;;0.70;;
85701;SDS011;76139;50.888;3.882;2024-03-29T05:10:43;1.58;;;0.80;;
85701;SDS011;76139;50.888;3.882;2024-03-29T05:13:08;1.63;;;0.88;;
85701;SDS011;76139;50.888;3.882;2024-03-29T05:15:34;4.15;;;1.90;;
85701;SDS011;76139;50.888;3.882;2024-03-29T05:18:00;2.63;;;0.77;;
85701;SDS011;76139;50.888;3.882;2024-03-29T05:20:26;2.10;;;0.88;;
85701;SDS011;76139;50.888;3.882;2024-03-29T05:22:52;2.20;;;0.90;;
85701;SDS011;76139;50.888;3.882;2024-03-29T05:25:17;3.03;;;1.10;;
85701;SDS011;76139;50.888;3.882;2024-03-29T05:27:43;2.30;;;1.23;;
85701;SDS011;76139;50.888;3.882;2024-03-29T05:30:09;5.85;;;1.17;;
85701;SDS011;76139;50.888;3.882;2024-03-29T05:32:35;3.30;;;1.20;;
85701;SDS011;76139;50.888;3.882;2024-03-29T05:35:01;3.38;;;0.90;;
85701;SDS011;76139;50.888;3.882;2024-03-29T05:37:27;2.05;;;0.88;;
85701;SDS011;76139;50.888;3.882;2024-03-29T05:39:53;2.22;;;1.02;;
85701;SDS011;76139;50.888;3.882;2024-03-29T05:42:25;1.80;;;0.80;;
85701;SDS011;76139;50.888;3.882;2024-03-29T05:44:51;2.17;;;1.45;;
85701;SDS011;76139;50.888;3.882;2024-03-29T05:47:17;2.70;;;0.88;;
85701;SDS011;76139;50.888;3.882;2024-03-29T05:49:43;1.35;;;0.80;;
85701;SDS011;76139;50.888;3.882;2024-03-29T05:52:09;1.75;;;0.90;;
85701;SDS011;76139;50.888;3.882;2024-03-29T05:54:34;2.15;;;0.70;;
85701;SDS011;76139;50.888;3.882;2024-03-29T05:57:01;2.08;;;0.77;;
85701;SDS011;76139;50.888;3.882;2024-03-29T05:59:26;4.32;;;1.00;;
85701;SDS011;76139;50.888;3.882;2024-03-29T06:01:52;1.77;;;0.85;;
85701;SDS011;76139;50.888;3.882;2024-03-29T06:04:18;3.10;;;1.08;;
85701;SDS011;76139;50.888;3.882;2024-03-29T06:06:49;3.90;;;1.23;;
85701;SDS011;76139;50.888;3.882;2024-03-29T06:09:15;3.63;;;1.27;;
85701;SDS011;76139;50.888;3.882;2024-03-29T06:11:43;2.97;;;1.58;;
85701;SDS011;76139;50.888;3.882;2024-03-29T06:14:09;5.10;;;1.98;;
85701;SDS011;76139;50.888;3.882;2024-03-29T06:16:35;3.08;;;1.38;;
85701;SDS011;76139;50.888;3.882;2024-03-29T06:21:45;4.78;;;1.77;;
85701;SDS011;76139;50.888;3.882;2024-03-29T06:24:11;3.95;;;1.65;;
85701;SDS011;76139;50.888;3.882;2024-03-29T06:26:37;5.35;;;1.60;;
85701;SDS011;76139;50.888;3.882;2024-03-29T06:29:03;4.38;;;1.50;;
85701;SDS011;76139;50.888;3.882;2024-03-29T06:31:29;3.97;;;1.92;;
85701;SDS011;76139;50.888;3.882;2024-03-29T06:33:55;3.13;;;1.30;;
85701;SDS011;76139;50.888;3.882;2024-03-29T06:36:24;3.53;;;1.08;;
85701;SDS011;76139;50.888;3.882;2024-03-29T06:38:50;3.47;;;1.30;;
85701;SDS011;76139;50.888;3.882;2024-03-29T06:41:17;3.42;;;1.40;;
85701;SDS011;76139;50.888;3.882;2024-03-29T06:43:42;3.70;;;1.38;;
85701;SDS011;76139;50.888;3.882;2024-03-29T06:46:11;4.88;;;1.65;;
85701;SDS011;76139;50.888;3.882;2024-03-29T06:48:38;3.00;;;1.38;;
85701;SDS011;76139;50.888;3.882;2024-03-29T06:51:04;3.10;;;1.58;;
85701;SDS011;76139;50.888;3.882;2024-03-29T06:53:30;5.72;;;1.90;;
85701;SDS011;76139;50.888;3.882;2024-03-29T06:55:55;3.80;;;1.52;;
85701;SDS011;76139;50.888;3.882;2024-03-29T06:58:22;4.53;;;1.75;;
85701;SDS011;76139;50.888;3.882;2024-03-29T07:00:48;10.93;;;1.75;;
85701;SDS011;76139;50.888;3.882;2024-03-29T07:03:15;3.60;;;1.30;;
85701;SDS011;76139;50.888;3.882;2024-03-29T07:05:42;3.10;;;1.38;;
85701;SDS011;76139;50.888;3.882;2024-03-29T07:08:07;4.88;;;1.60;;
85701;SDS011;76139;50.888;3.882;2024-03-29T07:10:33;4.82;;;1.48;;
85701;SDS011;76139;50.888;3.882;2024-03-29T07:12:59;5.20;;;1.25;;
85701;SDS011;76139;50.888;3.882;2024-03-29T07:15:24;4.47;;;1.40;;
85701;SDS011;76139;50.888;3.882;2024-03-29T07:17:50;3.75;;;1.63;;
85701;SDS011;76139;50.888;3.882;2024-03-29T07:20:17;5.68;;;1.30;;
85701;SDS011;76139;50.888;3.882;2024-03-29T07:22:43;3.22;;;1.17;;
85701;SDS011;76139;50.888;3.882;2024-03-29T07:25:10;2.05;;;1.20;;
85701;SDS011;76139;50.888;3.882;2024-03-29T07:27:36;2.92;;;1.27;;
85701;SDS011;76139;50.888;3.882;2024-03-29T07:30:02;2.08;;;1.00;;
85701;SDS011;76139;50.888;3.882;2024-03-29T07:32:33;3.50;;;1.83;;
85701;SDS011;76139;50.888;3.882;2024-03-29T07:34:59;3.55;;;1.42;;
85701;SDS011;76139;50.888;3.882;2024-03-29T07:37:25;4.57;;;1.63;;
85701;SDS011;76139;50.888;3.882;2024-03-29T07:39:51;4.20;;;1.42;;
85701;SDS011;76139;50.888;3.882;2024-03-29T07:42:16;4.97;;;1.80;;
85701;SDS011;76139;50.888;3.882;2024-03-29T07:44:44;4.60;;;2.60;;
85701;SDS011;76139;50.888;3.882;2024-03-29T07:47:09;3.08;;;1.45;;
85701;SDS011;76139;50.888;3.882;2024-03-29T07:49:38;4.53;;;1.70;;
85701;SDS011;76139;50.888;3.882;2024-03-29T07:52:04;4.60;;;1.63;;
85701;SDS011;76139;50.888;3.882;2024-03-29T07:54:31;6.22;;;1.83;;
85701;SDS011;76139;50.888;3.882;2024-03-29T07:56:57;10.30;;;2.05;;
85701;SDS011;76139;50.888;3.882;2024-03-29T07:59:23;4.18;;;1.30;;
85701;SDS011;76139;50.888;3.882;2024-03-29T08:01:48;5.47;;;1.90;;
85701;SDS011;76139;50.888;3.882;2024-03-29T08:04:14;3.35;;;1.75;;
85701;SDS011;76139;50.888;3.882;2024-03-29T08:06:39;26.15;;;4.18;;
85701;SDS011;76139;50.888;3.882;2024-03-29T08:09:05;6.07;;;2.00;;
85701;SDS011;76139;50.888;3.882;2024-03-29T08:11:31;4.45;;;1.95;;
85701;SDS011;76139;50.888;3.882;2024-03-29T08:13:57;3.88;;;1.90;;
85701;SDS011;76139;50.888;3.882;2024-03-29T08:16:22;4.00;;;1.88;;
85701;SDS011;76139;50.888;3.882;2024-03-29T08:18:48;3.15;;;1.83;;
85701;SDS011;76139;50.888;3.882;2024-03-29T08:21:14;5.03;;;2.13;;
85701;SDS011;76139;50.888;3.882;2024-03-29T08:23:40;4.60;;;1.77;;
85701;SDS011;76139;50.888;3.882;2024-03-29T08:26:06;4.55;;;1.70;;
85701;SDS011;76139;50.888;3.882;2024-03-29T08:28:32;6.10;;;2.47;;
85701;SDS011;76139;50.888;3.882;2024-03-29T08:31:02;5.57;;;2.00;;
85701;SDS011;76139;50.888;3.882;2024-03-29T08:33:29;5.65;;;2.42;;
85701;SDS011;76139;50.888;3.882;2024-03-29T08:35:56;3.88;;;1.75;;
85701;SDS011;76139;50.888;3.882;2024-03-29T08:38:22;3.72;;;1.80;;
85701;SDS011;76139;50.888;3.882;2024-03-29T08:40:48;5.95;;;2.40;;
85701;SDS011;76139;50.888;3.882;2024-03-29T08:43:14;4.40;;;1.80;;
85701;SDS011;76139;50.888;3.882;2024-03-29T08:45:41;4.50;;;2.22;;
85701;SDS011;76139;50.888;3.882;2024-03-29T08:48:07;4.18;;;1.80;;
85701;SDS011;76139;50.888;3.882;2024-03-29T08:50:33;4.93;;;2.03;;
85701;SDS011;76139;50.888;3.882;2024-03-29T08:53:00;4.40;;;1.85;;
85701;SDS011;76139;50.888;3.882;2024-03-29T08:55:26;5.03;;;1.48;;
85701;SDS011;76139;50.888;3.882;2024-03-29T08:57:52;4.05;;;1.75;;
85701;SDS011;76139;50.888;3.882;2024-03-29T09:00:18;4.22;;;1.55;;
85701;SDS011;76139;50.888;3.882;2024-03-29T09:02:45;4.15;;;1.70;;
85701;SDS011;76139;50.888;3.882;2024-03-29T09:05:11;3.63;;;1.52;;
85701;SDS011;76139;50.888;3.882;2024-03-29T09:07:37;8.05;;;2.17;;
85701;SDS011;76139;50.888;3.882;2024-03-29T09:10:03;3.45;;;1.63;;
85701;SDS011;76139;50.888;3.882;2024-03-29T09:12:29;2.78;;;1.45;;
85701;SDS011;76139;50.888;3.882;2024-03-29T09:14:55;1.42;;;1.20;;
85701;SDS011;76139;50.888;3.882;2024-03-29T09:17:21;3.13;;;1.50;;
85701;SDS011;76139;50.888;3.882;2024-03-29T09:19:50;2.65;;;1.35;;
85701;SDS011;76139;50.888;3.882;2024-03-29T09:22:19;3.25;;;1.55;;
85701;SDS011;76139;50.888;3.882;2024-03-29T09:24:44;3.15;;;1.70;;
85701;SDS011;76139;50.888;3.882;2024-03-29T09:27:10;3.05;;;1.50;;
85701;SDS011;76139;50.888;3.882;2024-03-29T09:29:36;3.15;;;1.48;;
85701;SDS011;76139;50.888;3.882;2024-03-29T09:32:02;1.35;;;1.10;;
85701;SDS011;76139;50.888;3.882;2024-03-29T09:34:28;2.28;;;1.20;;
85701;SDS011;76139;50.888;3.882;2024-03-29T09:36:53;5.55;;;1.65;;
85701;SDS011;76139;50.888;3.882;2024-03-29T09:39:19;4.05;;;1.20;;
85701;SDS011;76139;50.888;3.882;2024-03-29T09:41:45;2.53;;;1.02;;
85701;SDS011;76139;50.888;3.882;2024-03-29T09:44:11;2.95;;;1.30;;
85701;SDS011;76139;50.888;3.882;2024-03-29T09:46:37;2.50;;;1.13;;
85701;SDS011;76139;50.888;3.882;2024-03-29T09:49:08;3.10;;;1.20;;
85701;SDS011;76139;50.888;3.882;2024-03-29T09:51:34;1.88;;;1.20;;
85701;SDS011;76139;50.888;3.882;2024-03-29T09:54:01;2.13;;;0.95;;
85701;SDS011;76139;50.888;3.882;2024-03-29T09:56:29;1.88;;;1.42;;
85701;SDS011;76139;50.888;3.882;2024-03-29T09:58:55;1.25;;;1.10;;
85701;SDS011;76139;50.888;3.882;2024-03-29T10:01:22;2.95;;;1.38;;
85701;SDS011;76139;50.888;3.882;2024-03-29T10:03:48;2.55;;;1.20;;
85701;SDS011;76139;50.888;3.882;2024-03-29T10:06:18;2.65;;;1.30;;
85701;SDS011;76139;50.888;3.882;2024-03-29T10:08:47;2.53;;;1.33;;
85701;SDS011;76139;50.888;3.882;2024-03-29T10:11:14;1.52;;;1.00;;
85701;SDS011;76139;50.888;3.882;2024-03-29T10:13:44;2.28;;;1.20;;
85701;SDS011;76139;50.888;3.882;2024-03-29T10:16:10;3.10;;;1.20;;
85701;SDS011;76139;50.888;3.882;2024-03-29T10:18:37;2.42;;;1.00;;
85701;SDS011;76139;50.888;3.882;2024-03-29T10:21:05;2.13;;;1.15;;
85701;SDS011;76139;50.888;3.882;2024-03-29T10:23:32;2.22;;;1.00;;
85701;SDS011;76139;50.888;3.882;2024-03-29T10:26:00;2.75;;;1.30;;
85701;SDS011;76139;50.888;3.882;2024-03-29T10:28:29;1.40;;;1.00;;
85701;SDS011;76139;50.888;3.882;2024-03-29T10:30:58;2.03;;;1.00;;
85701;SDS011;76139;50.888;3.882;2024-03-29T10:33:27;3.53;;;1.50;;
85701;SDS011;76139;50.888;3.882;2024-03-29T10:35:54;1.13;;;1.05;;
85701;SDS011;76139;50.888;3.882;2024-03-29T10:38:24;2.15;;;1.10;;
85701;SDS011;76139;50.888;3.882;2024-03-29T10:40:53;2.80;;;1.13;;
85701;SDS011;76139;50.888;3.882;2024-03-29T10:43:20;2.25;;;1.20;;
85701;SDS011;76139;50.888;3.882;2024-03-29T10:45:47;1.60;;;1.15;;
85701;SDS011;76139;50.888;3.882;2024-03-29T10:48:15;2.60;;;1.20;;
85701;SDS011;76139;50.888;3.882;2024-03-29T10:50:42;3.00;;;1.25;;
85701;SDS011;76139;50.888;3.882;2024-03-29T10:53:09;2.10;;;1.10;;
85701;SDS011;76139;50.888;3.882;2024-03-29T10:55:36;3.33;;;1.00;;
85701;SDS011;76139;50.888;3.882;2024-03-29T10:58:03;2.72;;;0.98;;
85701;SDS011;76139;50.888;3.882;2024-03-29T11:00:33;2.63;;;1.25;;
85701;SDS011;76139;50.888;3.882;2024-03-29T11:05:38;2.13;;;0.85;;
85701;SDS011;76139;50.888;3.882;2024-03-29T11:08:11;2.67;;;1.23;;
85701;SDS011;76139;50.888;3.882;2024-03-29T11:10:41;1.95;;;0.95;;
85701;SDS011;76139;50.888;3.882;2024-03-29T11:13:15;3.53;;;1.25;;
85701;SDS011;76139;50.888;3.882;2024-03-29T11:15:59;2.53;;;1.10;;
85701;SDS011;76139;50.888;3.882;2024-03-29T11:18:26;1.17;;;1.05;;
85701;SDS011;76139;50.888;3.882;2024-03-29T11:20:53;1.58;;;1.10;;
85701;SDS011;76139;50.888;3.882;2024-03-29T11:23:21;2.05;;;1.02;;
85701;SDS011;76139;50.888;3.882;2024-03-29T11:25:51;1.60;;;0.98;;
85701;SDS011;76139;50.888;3.882;2024-03-29T11:28:28;2.50;;;1.02;;
85701;SDS011;76139;50.888;3.882;2024-03-29T11:31:02;1.40;;;0.77;;
85701;SDS011;76139;50.888;3.882;2024-03-29T11:35:59;1.17;;;0.90;;
85701;SDS011;76139;50.888;3.882;2024-03-29T11:38:35;2.10;;;0.77;;
85701;SDS011;76139;50.888;3.882;2024-03-29T11:41:10;2.15;;;0.80;;
85701;SDS011;76139;50.888;3.882;2024-03-29T11:43:41;1.55;;;0.70;;
85701;SDS011;76139;50.888;3.882;2024-03-29T11:46:09;1.80;;;1.00;;
85701;SDS011;76139;50.888;3.882;2024-03-29T11:48:36;3.97;;;1.85;;
85701;SDS011;76139;50.888;3.882;2024-03-29T11:51:04;1.25;;;0.65;;
85701;SDS011;76139;50.888;3.882;2024-03-29T11:53:31;2.50;;;0.90;;
85701;SDS011;76139;50.888;3.882;2024-03-29T11:55:58;2.08;;;1.33;;
85701;SDS011;76139;50.888;3.882;2024-03-29T11:58:25;1.70;;;0.70;;
85701;SDS011;76139;50.888;3.882;2024-03-29T12:00:52;2.08;;;0.80;;
85701;SDS011;76139;50.888;3.882;2024-03-29T12:03:19;0.80;;;0.57;;
85701;SDS011;76139;50.888;3.882;2024-03-29T12:05:47;1.45;;;0.60;;
85701;SDS011;76139;50.888;3.882;2024-03-29T12:08:19;0.80;;;0.70;;
85701;SDS011;76139;50.888;3.882;2024-03-29T12:10:45;1.02;;;0.80;;
85701;SDS011;76139;50.888;3.882;2024-03-29T12:13:11;1.08;;;0.82;;
85701;SDS011;76139;50.888;3.882;2024-03-29T12:15:37;1.90;;;0.90;;
85701;SDS011;76139;50.888;3.882;2024-03-29T12:18:04;0.98;;;0.60;;
85701;SDS011;76139;50.888;3.882;2024-03-29T12:20:33;1.65;;;0.57;;
85701;SDS011;76139;50.888;3.882;2024-03-29T12:23:03;0.52;;;0.45;;
85701;SDS011;76139;50.888;3.882;2024-03-29T12:25:34;1.15;;;0.70;;
85701;SDS011;76139;50.888;3.882;2024-03-29T12:28:01;0.68;;;0.57;;
85701;SDS011;76139;50.888;3.882;2024-03-29T12:30:28;1.42;;;0.80;;
85701;SDS011;76139;50.888;3.882;2024-03-29T12:33:01;3.65;;;0.85;;
85701;SDS011;76139;50.888;3.882;2024-03-29T12:35:39;1.35;;;0.73;;
85701;SDS011;76139;50.888;3.882;2024-03-29T12:38:10;3.10;;;0.80;;
